sensor_id;sensor_type;location;lat;lon;timestamp;P1;durP1;ratioP1;P2;durP2;ratioP2
23868;SDS011;12115;47.128;15.422;2022-11-20T00:02:33;33.25;;;20.90;;
23868;SDS011;12115;47.128;15.422;2022-11-20T00:05:31;33.42;;;21.35;;
23868;SDS011;12115;47.128;15.422;2022-11-20T00:08:42;32.80;;;20.95;;
23868;SDS011;12115;47.128;15.422;2022-11-20T00:11:34;34.00;;;20.90;;
23868;SDS011;12115;47.128;15.422;2022-11-20T00:15:04;37.95;;;22.10;;
23868;SDS011;12115;47.128;15.422;2022-11-20T00:17:59;32.30;;;20.23;;
23868;SDS011;12115;47.128;15.422;2022-11-20T00:21:04;39.08;;;22.55;;
23868;SDS011;12115;47.128;15.422;2022-11-20T00:24:29;36.72;;;20.73;;
23868;SDS011;12115;47.128;15.422;2022-11-20T00:28:01;40.17;;;22.10;;
23868;SDS011;12115;47.128;15.422;2022-11-20T00:30:39;36.28;;;20.88;;
23868;SDS011;12115;47.128;15.422;2022-11-20T00:36:25;32.97;;;20.67;;
23868;SDS011;12115;47.128;15.422;2022-11-20T00:39:54;37.75;;;22.20;;
23868;SDS011;12115;47.128;15.422;2022-11-20T00:43:03;35.42;;;20.85;;
23868;SDS011;12115;47.128;15.422;2022-11-20T00:46:26;36.78;;;22.70;;
23868;SDS011;12115;47.128;15.422;2022-11-20T00:49:47;38.10;;;22.90;;
23868;SDS011;12115;47.128;15.422;2022-11-20T00:52:38;38.13;;;22.00;;
23868;SDS011;12115;47.128;15.422;2022-11-20T00:55:25;40.00;;;22.80;;
23868;SDS011;12115;47.128;15.422;2022-11-20T00:58:30;35.72;;;21.40;;
23868;SDS011;12115;47.128;15.422;2022-11-20T01:01:39;36.95;;;20.90;;
23868;SDS011;12115;47.128;15.422;2022-11-20T01:04:24;33.50;;;21.20;;
23868;SDS011;12115;47.128;15.422;2022-11-20T01:10:37;37.58;;;22.00;;
23868;SDS011;12115;47.128;15.422;2022-11-20T01:13:18;42.42;;;23.15;;
23868;SDS011;12115;47.128;15.422;2022-11-20T01:17:02;33.30;;;20.23;;
23868;SDS011;12115;47.128;15.422;2022-11-20T01:19:48;36.35;;;20.85;;
23868;SDS011;12115;47.128;15.422;2022-11-20T01:22:33;35.92;;;21.17;;
23868;SDS011;12115;47.128;15.422;2022-11-20T01:25:19;34.30;;;21.52;;
23868;SDS011;12115;47.128;15.422;2022-11-20T01:28:25;35.28;;;20.42;;
23868;SDS011;12115;47.128;15.422;2022-11-20T01:31:19;32.63;;;19.45;;
23868;SDS011;12115;47.128;15.422;2022-11-20T01:35:00;32.78;;;20.20;;
23868;SDS011;12115;47.128;15.422;2022-11-20T01:37:26;39.92;;;22.88;;
23868;SDS011;12115;47.128;15.422;2022-11-20T01:40:44;38.45;;;21.15;;
23868;SDS011;12115;47.128;15.422;2022-11-20T01:43:39;37.63;;;21.85;;
23868;SDS011;12115;47.128;15.422;2022-11-20T01:46:38;35.00;;;20.60;;
23868;SDS011;12115;47.128;15.422;2022-11-20T01:52:32;35.80;;;20.42;;
23868;SDS011;12115;47.128;15.422;2022-11-20T01:55:50;31.90;;;18.77;;
23868;SDS011;12115;47.128;15.422;2022-11-20T01:58:59;31.42;;;19.17;;
23868;SDS011;12115;47.128;15.422;2022-11-20T02:02:17;35.53;;;21.63;;
23868;SDS011;12115;47.128;15.422;2022-11-20T02:05:00;33.45;;;20.58;;
23868;SDS011;12115;47.128;15.422;2022-11-20T02:08:36;35.05;;;20.95;;
23868;SDS011;12115;47.128;15.422;2022-11-20T02:11:27;33.70;;;20.23;;
23868;SDS011;12115;47.128;15.422;2022-11-20T02:17:53;33.33;;;21.33;;
23868;SDS011;12115;47.128;15.422;2022-11-20T02:21:19;36.92;;;21.27;;
23868;SDS011;12115;47.128;15.422;2022-11-20T02:26:59;33.80;;;20.33;;
23868;SDS011;12115;47.128;15.422;2022-11-20T02:29:55;34.60;;;20.75;;
23868;SDS011;12115;47.128;15.422;2022-11-20T02:33:19;32.38;;;18.05;;
23868;SDS011;12115;47.128;15.422;2022-11-20T02:36:27;31.90;;;18.90;;
23868;SDS011;12115;47.128;15.422;2022-11-20T02:45:50;27.65;;;17.58;;
23868;SDS011;12115;47.128;15.422;2022-11-20T02:48:36;31.35;;;19.30;;
23868;SDS011;12115;47.128;15.422;2022-11-20T02:54:39;28.45;;;17.60;;
23868;SDS011;12115;47.128;15.422;2022-11-20T02:57:11;25.15;;;16.10;;
23868;SDS011;12115;47.128;15.422;2022-11-20T03:00:55;27.33;;;16.83;;
23868;SDS011;12115;47.128;15.422;2022-11-20T03:03:24;28.48;;;18.02;;
23868;SDS011;12115;47.128;15.422;2022-11-20T03:06:34;26.85;;;17.95;;
23868;SDS011;12115;47.128;15.422;2022-11-20T03:09:47;29.85;;;18.35;;
23868;SDS011;12115;47.128;15.422;2022-11-20T03:12:55;26.27;;;17.20;;
23868;SDS011;12115;47.128;15.422;2022-11-20T03:16:10;25.15;;;16.58;;
23868;SDS011;12115;47.128;15.422;2022-11-20T03:19:30;26.90;;;17.02;;
23868;SDS011;12115;47.128;15.422;2022-11-20T03:22:03;28.58;;;18.38;;
23868;SDS011;12115;47.128;15.422;2022-11-20T03:25:32;28.33;;;17.25;;
23868;SDS011;12115;47.128;15.422;2022-11-20T03:28:20;30.90;;;19.13;;
23868;SDS011;12115;47.128;15.422;2022-11-20T03:31:29;28.13;;;17.75;;
23868;SDS011;12115;47.128;15.422;2022-11-20T03:34:22;26.90;;;16.90;;
23868;SDS011;12115;47.128;15.422;2022-11-20T03:37:31;23.58;;;16.00;;
23868;SDS011;12115;47.128;15.422;2022-11-20T03:40:50;26.83;;;16.55;;
23868;SDS011;12115;47.128;15.422;2022-11-20T03:43:32;24.00;;;14.73;;
23868;SDS011;12115;47.128;15.422;2022-11-20T03:46:24;23.63;;;16.13;;
23868;SDS011;12115;47.128;15.422;2022-11-20T03:49:41;22.42;;;14.75;;
23868;SDS011;12115;47.128;15.422;2022-11-20T03:52:39;24.85;;;15.27;;
23868;SDS011;12115;47.128;15.422;2022-11-20T03:55:09;23.67;;;15.15;;
23868;SDS011;12115;47.128;15.422;2022-11-20T03:58:02;21.38;;;14.65;;
23868;SDS011;12115;47.128;15.422;2022-11-20T04:00:52;21.02;;;14.85;;
23868;SDS011;12115;47.128;15.422;2022-11-20T04:03:43;19.30;;;13.25;;
23868;SDS011;12115;47.128;15.422;2022-11-20T04:07:12;20.02;;;14.00;;
23868;SDS011;12115;47.128;15.422;2022-11-20T04:17:21;17.02;;;13.25;;
23868;SDS011;12115;47.128;15.422;2022-11-20T04:20:39;18.95;;;12.52;;
23868;SDS011;12115;47.128;15.422;2022-11-20T04:23:39;17.63;;;13.60;;
23868;SDS011;12115;47.128;15.422;2022-11-20T04:26:31;16.90;;;12.50;;
23868;SDS011;12115;47.128;15.422;2022-11-20T04:29:32;18.70;;;12.52;;
23868;SDS011;12115;47.128;15.422;2022-11-20T04:32:33;20.48;;;13.68;;
23868;SDS011;12115;47.128;15.422;2022-11-20T04:39:06;18.70;;;12.38;;
23868;SDS011;12115;47.128;15.422;2022-11-20T04:41:50;18.27;;;12.90;;
23868;SDS011;12115;47.128;15.422;2022-11-20T04:45:00;17.98;;;11.50;;
23868;SDS011;12115;47.128;15.422;2022-11-20T04:47:44;16.60;;;12.52;;
23868;SDS011;12115;47.128;15.422;2022-11-20T04:50:30;13.73;;;10.95;;
23868;SDS011;12115;47.128;15.422;2022-11-20T04:56:42;19.63;;;11.93;;
23868;SDS011;12115;47.128;15.422;2022-11-20T04:59:52;16.90;;;11.23;;
23868;SDS011;12115;47.128;15.422;2022-11-20T05:02:42;18.35;;;12.70;;
23868;SDS011;12115;47.128;15.422;2022-11-20T05:05:33;18.08;;;13.20;;
23868;SDS011;12115;47.128;15.422;2022-11-20T05:09:00;15.60;;;11.52;;
23868;SDS011;12115;47.128;15.422;2022-11-20T05:12:26;16.25;;;11.88;;
23868;SDS011;12115;47.128;15.422;2022-11-20T05:16:16;17.30;;;11.75;;
23868;SDS011;12115;47.128;15.422;2022-11-20T05:19:16;18.10;;;12.20;;
23868;SDS011;12115;47.128;15.422;2022-11-20T05:22:09;15.45;;;11.80;;
23868;SDS011;12115;47.128;15.422;2022-11-20T05:25:09;15.43;;;11.38;;
23868;SDS011;12115;47.128;15.422;2022-11-20T05:28:02;16.65;;;11.57;;
23868;SDS011;12115;47.128;15.422;2022-11-20T05:34:51;17.87;;;10.93;;
23868;SDS011;12115;47.128;15.422;2022-11-20T05:38:07;16.55;;;10.55;;
23868;SDS011;12115;47.128;15.422;2022-11-20T05:41:15;15.77;;;11.45;;
23868;SDS011;12115;47.128;15.422;2022-11-20T05:44:34;17.77;;;11.60;;
23868;SDS011;12115;47.128;15.422;2022-11-20T05:47:23;14.02;;;10.48;;
23868;SDS011;12115;47.128;15.422;2022-11-20T05:50:05;17.42;;;12.10;;
23868;SDS011;12115;47.128;15.422;2022-11-20T05:53:08;17.45;;;10.38;;
23868;SDS011;12115;47.128;15.422;2022-11-20T05:59:25;17.60;;;12.93;;
23868;SDS011;12115;47.128;15.422;2022-11-20T06:02:13;17.63;;;12.25;;
23868;SDS011;12115;47.128;15.422;2022-11-20T06:05:04;18.75;;;11.70;;
23868;SDS011;12115;47.128;15.422;2022-11-20T06:07:49;17.42;;;12.02;;
23868;SDS011;12115;47.128;15.422;2022-11-20T06:10:25;18.23;;;12.52;;
23868;SDS011;12115;47.128;15.422;2022-11-20T06:13:27;18.85;;;12.43;;
23868;SDS011;12115;47.128;15.422;2022-11-20T06:16:41;15.48;;;11.05;;
23868;SDS011;12115;47.128;15.422;2022-11-20T06:20:00;18.00;;;11.48;;
23868;SDS011;12115;47.128;15.422;2022-11-20T06:23:04;16.83;;;11.52;;
23868;SDS011;12115;47.128;15.422;2022-11-20T06:25:53;20.50;;;11.90;;
23868;SDS011;12115;47.128;15.422;2022-11-20T06:29:10;15.55;;;11.18;;
23868;SDS011;12115;47.128;15.422;2022-11-20T06:32:23;15.10;;;10.30;;
23868;SDS011;12115;47.128;15.422;2022-11-20T06:35:32;15.45;;;11.30;;
23868;SDS011;12115;47.128;15.422;2022-11-20T06:38:55;13.48;;;10.05;;
23868;SDS011;12115;47.128;15.422;2022-11-20T06:41:51;14.80;;;10.77;;
23868;SDS011;12115;47.128;15.422;2022-11-20T06:45:07;17.10;;;10.82;;
23868;SDS011;12115;47.128;15.422;2022-11-20T06:48:27;13.95;;;9.88;;
23868;SDS011;12115;47.128;15.422;2022-11-20T06:51:21;12.52;;;9.43;;
23868;SDS011;12115;47.128;15.422;2022-11-20T06:54:07;11.95;;;9.85;;
23868;SDS011;12115;47.128;15.422;2022-11-20T06:57:31;15.38;;;10.68;;
23868;SDS011;12115;47.128;15.422;2022-11-20T07:00:33;17.27;;;10.60;;
23868;SDS011;12115;47.128;15.422;2022-11-20T07:03:28;12.85;;;10.32;;
23868;SDS011;12115;47.128;15.422;2022-11-20T07:06:43;14.07;;;10.60;;
23868;SDS011;12115;47.128;15.422;2022-11-20T07:09:55;15.02;;;10.25;;
23868;SDS011;12115;47.128;15.422;2022-11-20T07:12:36;13.52;;;10.02;;
23868;SDS011;12115;47.128;15.422;2022-11-20T07:15:22;13.88;;;10.15;;
23868;SDS011;12115;47.128;15.422;2022-11-20T07:18:26;15.68;;;11.10;;
23868;SDS011;12115;47.128;15.422;2022-11-20T07:21:02;16.88;;;11.50;;
23868;SDS011;12115;47.128;15.422;2022-11-20T07:23:56;14.70;;;11.35;;
23868;SDS011;12115;47.128;15.422;2022-11-20T07:26:52;16.47;;;11.67;;
23868;SDS011;12115;47.128;15.422;2022-11-20T07:30:00;18.13;;;12.98;;
23868;SDS011;12115;47.128;15.422;2022-11-20T07:33:00;19.30;;;12.02;;
23868;SDS011;12115;47.128;15.422;2022-11-20T07:35:51;15.55;;;11.90;;
23868;SDS011;12115;47.128;15.422;2022-11-20T07:38:29;14.30;;;10.85;;
23868;SDS011;12115;47.128;15.422;2022-11-20T07:41:14;15.23;;;11.27;;
23868;SDS011;12115;47.128;15.422;2022-11-20T07:44:00;14.57;;;10.48;;
23868;SDS011;12115;47.128;15.422;2022-11-20T07:46:50;14.30;;;10.95;;
23868;SDS011;12115;47.128;15.422;2022-11-20T07:49:25;13.77;;;10.13;;
23868;SDS011;12115;47.128;15.422;2022-11-20T07:52:16;11.88;;;9.43;;
23868;SDS011;12115;47.128;15.422;2022-11-20T07:56:08;14.48;;;10.77;;
23868;SDS011;12115;47.128;15.422;2022-11-20T07:58:58;15.35;;;10.57;;
23868;SDS011;12115;47.128;15.422;2022-11-20T08:01:42;12.07;;;9.13;;
23868;SDS011;12115;47.128;15.422;2022-11-20T08:04:33;9.77;;;8.70;;
23868;SDS011;12115;47.128;15.422;2022-11-20T08:07:27;9.95;;;7.72;;
23868;SDS011;12115;47.128;15.422;2022-11-20T08:10:37;13.68;;;10.27;;
23868;SDS011;12115;47.128;15.422;2022-11-20T08:13:52;16.60;;;11.60;;
23868;SDS011;12115;47.128;15.422;2022-11-20T08:16:59;17.95;;;12.93;;
23868;SDS011;12115;47.128;15.422;2022-11-20T08:19:42;18.38;;;11.35;;
23868;SDS011;12115;47.128;15.422;2022-11-20T08:22:29;14.73;;;10.60;;
23868;SDS011;12115;47.128;15.422;2022-11-20T08:25:16;15.13;;;11.05;;
23868;SDS011;12115;47.128;15.422;2022-11-20T08:28:23;14.73;;;10.93;;
23868;SDS011;12115;47.128;15.422;2022-11-20T08:31:37;14.20;;;11.10;;
23868;SDS011;12115;47.128;15.422;2022-11-20T08:34:39;14.30;;;10.48;;
23868;SDS011;12115;47.128;15.422;2022-11-20T08:40:38;12.20;;;9.48;;
23868;SDS011;12115;47.128;15.422;2022-11-20T08:50:44;12.50;;;10.32;;
23868;SDS011;12115;47.128;15.422;2022-11-20T08:54:03;13.20;;;9.90;;
23868;SDS011;12115;47.128;15.422;2022-11-20T08:57:01;12.48;;;10.00;;
23868;SDS011;12115;47.128;15.422;2022-11-20T08:59:52;11.13;;;8.40;;
23868;SDS011;12115;47.128;15.422;2022-11-20T09:02:52;13.75;;;9.40;;
23868;SDS011;12115;47.128;15.422;2022-11-20T09:08:45;13.15;;;10.05;;
23868;SDS011;12115;47.128;15.422;2022-11-20T09:11:49;12.57;;;10.18;;
23868;SDS011;12115;47.128;15.422;2022-11-20T09:14:40;13.38;;;10.18;;
23868;SDS011;12115;47.128;15.422;2022-11-20T09:17:40;14.55;;;11.35;;
23868;SDS011;12115;47.128;15.422;2022-11-20T09:20:57;13.13;;;10.85;;
23868;SDS011;12115;47.128;15.422;2022-11-20T09:24:26;14.07;;;10.55;;
23868;SDS011;12115;47.128;15.422;2022-11-20T09:27:14;15.80;;;11.60;;
23868;SDS011;12115;47.128;15.422;2022-11-20T09:30:19;14.90;;;11.80;;
23868;SDS011;12115;47.128;15.422;2022-11-20T09:33:26;12.18;;;9.98;;
23868;SDS011;12115;47.128;15.422;2022-11-20T09:36:27;12.95;;;10.40;;
23868;SDS011;12115;47.128;15.422;2022-11-20T09:39:13;14.57;;;10.75;;
23868;SDS011;12115;47.128;15.422;2022-11-20T09:49:32;11.35;;;9.23;;
23868;SDS011;12115;47.128;15.422;2022-11-20T09:55:53;10.30;;;8.35;;
23868;SDS011;12115;47.128;15.422;2022-11-20T09:59:14;9.38;;;8.38;;
23868;SDS011;12115;47.128;15.422;2022-11-20T10:06:24;9.77;;;8.27;;
23868;SDS011;12115;47.128;15.422;2022-11-20T10:27:16;11.50;;;10.07;;
23868;SDS011;12115;47.128;15.422;2022-11-20T10:37:30;9.40;;;8.40;;
23868;SDS011;12115;47.128;15.422;2022-11-20T10:44:32;8.82;;;7.90;;
23868;SDS011;12115;47.128;15.422;2022-11-20T11:01:13;9.15;;;7.55;;
23868;SDS011;12115;47.128;15.422;2022-11-20T11:04:07;9.73;;;8.73;;
23868;SDS011;12115;47.128;15.422;2022-11-20T11:10:42;11.15;;;8.27;;
23868;SDS011;12115;47.128;15.422;2022-11-20T11:14:25;10.88;;;9.50;;
23868;SDS011;12115;47.128;15.422;2022-11-20T11:17:17;13.93;;;8.73;;
23868;SDS011;12115;47.128;15.422;2022-11-20T11:20:18;10.48;;;9.27;;
23868;SDS011;12115;47.128;15.422;2022-11-20T11:23:22;10.40;;;8.40;;
23868;SDS011;12115;47.128;15.422;2022-11-20T11:26:23;10.50;;;8.05;;
23868;SDS011;12115;47.128;15.422;2022-11-20T11:32:24;8.63;;;7.25;;
23868;SDS011;12115;47.128;15.422;2022-11-20T11:35:38;7.60;;;6.55;;
23868;SDS011;12115;47.128;15.422;2022-11-20T11:38:39;10.57;;;8.13;;
23868;SDS011;12115;47.128;15.422;2022-11-20T11:41:33;11.55;;;8.45;;
23868;SDS011;12115;47.128;15.422;2022-11-20T11:48:07;9.82;;;7.45;;
23868;SDS011;12115;47.128;15.422;2022-11-20T11:51:29;11.70;;;7.88;;
23868;SDS011;12115;47.128;15.422;2022-11-20T12:18:40;9.55;;;7.45;;
23868;SDS011;12115;47.128;15.422;2022-11-20T12:25:41;2.58;;;2.25;;
23868;SDS011;12115;47.128;15.422;2022-11-20T12:42:45;3.33;;;2.90;;
23868;SDS011;12115;47.128;15.422;2022-11-20T13:08:27;4.43;;;2.92;;
23868;SDS011;12115;47.128;15.422;2022-11-20T13:15:05;3.90;;;2.95;;
23868;SDS011;12115;47.128;15.422;2022-11-20T13:18:21;3.50;;;2.70;;
23868;SDS011;12115;47.128;15.422;2022-11-20T13:21:18;3.67;;;3.03;;
23868;SDS011;12115;47.128;15.422;2022-11-20T13:24:34;3.72;;;2.80;;
23868;SDS011;12115;47.128;15.422;2022-11-20T13:27:36;4.50;;;3.35;;
23868;SDS011;12115;47.128;15.422;2022-11-20T13:30:50;4.20;;;3.08;;
23868;SDS011;12115;47.128;15.422;2022-11-20T13:33:59;3.55;;;3.05;;
23868;SDS011;12115;47.128;15.422;2022-11-20T13:37:23;3.75;;;3.00;;
23868;SDS011;12115;47.128;15.422;2022-11-20T13:41:02;3.10;;;2.60;;
23868;SDS011;12115;47.128;15.422;2022-11-20T13:51:09;3.00;;;2.70;;
23868;SDS011;12115;47.128;15.422;2022-11-20T14:00:51;3.65;;;2.75;;
23868;SDS011;12115;47.128;15.422;2022-11-20T14:04:11;3.50;;;2.93;;
23868;SDS011;12115;47.128;15.422;2022-11-20T14:07:11;2.72;;;2.40;;
23868;SDS011;12115;47.128;15.422;2022-11-20T14:10:17;3.45;;;2.60;;
23868;SDS011;12115;47.128;15.422;2022-11-20T14:13:26;3.38;;;2.42;;
23868;SDS011;12115;47.128;15.422;2022-11-20T14:16:38;3.38;;;2.40;;
23868;SDS011;12115;47.128;15.422;2022-11-20T14:19:36;2.85;;;2.30;;
23868;SDS011;12115;47.128;15.422;2022-11-20T14:22:35;4.25;;;2.20;;
23868;SDS011;12115;47.128;15.422;2022-11-20T14:26:00;5.20;;;2.10;;
23868;SDS011;12115;47.128;15.422;2022-11-20T14:29:20;3.10;;;2.22;;
23868;SDS011;12115;47.128;15.422;2022-11-20T14:32:38;2.55;;;2.03;;
23868;SDS011;12115;47.128;15.422;2022-11-20T14:35:57;2.92;;;2.25;;
23868;SDS011;12115;47.128;15.422;2022-11-20T14:39:01;2.55;;;1.95;;
23868;SDS011;12115;47.128;15.422;2022-11-20T14:41:53;3.08;;;2.22;;
23868;SDS011;12115;47.128;15.422;2022-11-20T14:45:02;2.58;;;1.65;;
23868;SDS011;12115;47.128;15.422;2022-11-20T14:47:46;8.63;;;5.63;;
23868;SDS011;12115;47.128;15.422;2022-11-20T14:50:48;8.00;;;5.95;;
23868;SDS011;12115;47.128;15.422;2022-11-20T14:53:30;5.30;;;4.10;;
23868;SDS011;12115;47.128;15.422;2022-11-20T15:03:16;5.20;;;3.13;;
23868;SDS011;12115;47.128;15.422;2022-11-20T15:06:24;5.72;;;3.00;;
23868;SDS011;12115;47.128;15.422;2022-11-20T15:09:24;2.38;;;1.60;;
23868;SDS011;12115;47.128;15.422;2022-11-20T15:12:50;3.80;;;2.42;;
23868;SDS011;12115;47.128;15.422;2022-11-20T15:15:53;12.60;;;6.63;;
23868;SDS011;12115;47.128;15.422;2022-11-20T15:18:40;3.70;;;2.70;;
23868;SDS011;12115;47.128;15.422;2022-11-20T15:22:07;2.90;;;2.03;;
23868;SDS011;12115;47.128;15.422;2022-11-20T15:24:54;2.60;;;2.20;;
23868;SDS011;12115;47.128;15.422;2022-11-20T15:27:56;3.85;;;1.55;;
23868;SDS011;12115;47.128;15.422;2022-11-20T15:35:02;7.32;;;4.03;;
23868;SDS011;12115;47.128;15.422;2022-11-20T15:37:49;7.97;;;4.35;;
23868;SDS011;12115;47.128;15.422;2022-11-20T15:40:53;3.80;;;2.50;;
23868;SDS011;12115;47.128;15.422;2022-11-20T15:43:55;6.72;;;3.30;;
23868;SDS011;12115;47.128;15.422;2022-11-20T15:46:52;25.83;;;11.98;;
23868;SDS011;12115;47.128;15.422;2022-11-20T15:50:11;4.72;;;3.38;;
23868;SDS011;12115;47.128;15.422;2022-11-20T15:53:04;5.28;;;4.13;;
23868;SDS011;12115;47.128;15.422;2022-11-20T15:55:55;6.57;;;4.93;;
23868;SDS011;12115;47.128;15.422;2022-11-20T15:58:29;115.60;;;40.45;;
23868;SDS011;12115;47.128;15.422;2022-11-20T16:01:48;59.35;;;21.55;;
23868;SDS011;12115;47.128;15.422;2022-11-20T16:04:41;8.65;;;4.47;;
23868;SDS011;12115;47.128;15.422;2022-11-20T16:07:45;28.90;;;18.13;;
23868;SDS011;12115;47.128;15.422;2022-11-20T16:11:00;24.65;;;12.63;;
23868;SDS011;12115;47.128;15.422;2022-11-20T16:14:03;37.45;;;17.00;;
23868;SDS011;12115;47.128;15.422;2022-11-20T16:16:55;9.65;;;5.43;;
23868;SDS011;12115;47.128;15.422;2022-11-20T16:20:15;5.00;;;3.97;;
23868;SDS011;12115;47.128;15.422;2022-11-20T16:23:29;26.60;;;12.25;;
23868;SDS011;12115;47.128;15.422;2022-11-20T16:26:16;6.03;;;4.47;;
23868;SDS011;12115;47.128;15.422;2022-11-20T16:29:33;6.20;;;3.58;;
23868;SDS011;12115;47.128;15.422;2022-11-20T16:32:12;21.27;;;10.85;;
23868;SDS011;12115;47.128;15.422;2022-11-20T16:35:38;15.30;;;9.30;;
23868;SDS011;12115;47.128;15.422;2022-11-20T16:38:34;8.95;;;6.38;;
23868;SDS011;12115;47.128;15.422;2022-11-20T16:44:52;12.07;;;7.05;;
23868;SDS011;12115;47.128;15.422;2022-11-20T16:51:00;10.50;;;7.38;;
23868;SDS011;12115;47.128;15.422;2022-11-20T16:53:48;16.85;;;10.25;;
23868;SDS011;12115;47.128;15.422;2022-11-20T16:56:53;22.08;;;15.10;;
23868;SDS011;12115;47.128;15.422;2022-11-20T16:59:42;28.48;;;20.02;;
23868;SDS011;12115;47.128;15.422;2022-11-20T17:06:17;14.38;;;10.45;;
23868;SDS011;12115;47.128;15.422;2022-11-20T17:09:12;16.15;;;11.43;;
23868;SDS011;12115;47.128;15.422;2022-11-20T17:12:24;13.85;;;9.65;;
23868;SDS011;12115;47.128;15.422;2022-11-20T17:15:43;16.13;;;11.52;;
23868;SDS011;12115;47.128;15.422;2022-11-20T17:26:31;15.00;;;12.40;;
23868;SDS011;12115;47.128;15.422;2022-11-20T17:29:47;19.10;;;11.68;;
23868;SDS011;12115;47.128;15.422;2022-11-20T17:35:39;14.30;;;10.45;;
23868;SDS011;12115;47.128;15.422;2022-11-20T17:38:38;13.88;;;10.90;;
23868;SDS011;12115;47.128;15.422;2022-11-20T17:48:22;18.70;;;12.68;;
23868;SDS011;12115;47.128;15.422;2022-11-20T17:54:49;16.77;;;10.93;;
23868;SDS011;12115;47.128;15.422;2022-11-20T17:58:04;12.32;;;9.27;;
23868;SDS011;12115;47.128;15.422;2022-11-20T18:05:09;14.45;;;10.32;;
23868;SDS011;12115;47.128;15.422;2022-11-20T18:11:29;11.77;;;9.93;;
23868;SDS011;12115;47.128;15.422;2022-11-20T18:17:19;11.75;;;10.55;;
23868;SDS011;12115;47.128;15.422;2022-11-20T18:20:32;12.32;;;10.73;;
23868;SDS011;12115;47.128;15.422;2022-11-20T18:23:35;10.85;;;9.45;;
23868;SDS011;12115;47.128;15.422;2022-11-20T18:26:51;10.68;;;9.57;;
23868;SDS011;12115;47.128;15.422;2022-11-20T18:30:17;11.18;;;9.73;;
23868;SDS011;12115;47.128;15.422;2022-11-20T18:33:19;11.10;;;9.45;;
23868;SDS011;12115;47.128;15.422;2022-11-20T18:36:10;10.88;;;9.55;;
23868;SDS011;12115;47.128;15.422;2022-11-20T18:39:32;14.18;;;9.32;;
23868;SDS011;12115;47.128;15.422;2022-11-20T18:42:42;10.50;;;8.55;;
23868;SDS011;12115;47.128;15.422;2022-11-20T18:46:21;12.02;;;9.57;;
23868;SDS011;12115;47.128;15.422;2022-11-20T18:50:05;10.98;;;9.10;;
23868;SDS011;12115;47.128;15.422;2022-11-20T18:53:16;9.30;;;8.27;;
23868;SDS011;12115;47.128;15.422;2022-11-20T18:56:20;9.48;;;8.40;;
23868;SDS011;12115;47.128;15.422;2022-11-20T18:59:38;10.45;;;8.68;;
23868;SDS011;12115;47.128;15.422;2022-11-20T19:03:07;9.82;;;8.43;;
23868;SDS011;12115;47.128;15.422;2022-11-20T19:06:45;10.07;;;8.15;;
23868;SDS011;12115;47.128;15.422;2022-11-20T19:13:31;8.47;;;7.57;;
23868;SDS011;12115;47.128;15.422;2022-11-20T19:17:08;12.45;;;8.18;;
23868;SDS011;12115;47.128;15.422;2022-11-20T19:23:30;9.63;;;8.00;;
23868;SDS011;12115;47.128;15.422;2022-11-20T19:26:53;11.00;;;8.70;;
23868;SDS011;12115;47.128;15.422;2022-11-20T19:30:21;29.08;;;16.48;;
23868;SDS011;12115;47.128;15.422;2022-11-20T19:33:41;31.10;;;17.63;;
23868;SDS011;12115;47.128;15.422;2022-11-20T19:36:59;13.98;;;10.35;;
23868;SDS011;12115;47.128;15.422;2022-11-20T19:40:13;15.20;;;9.88;;
23868;SDS011;12115;47.128;15.422;2022-11-20T19:43:06;22.15;;;12.48;;
23868;SDS011;12115;47.128;15.422;2022-11-20T19:46:12;22.02;;;13.52;;
23868;SDS011;12115;47.128;15.422;2022-11-20T19:49:23;12.18;;;9.57;;
23868;SDS011;12115;47.128;15.422;2022-11-20T19:52:26;10.70;;;8.10;;
23868;SDS011;12115;47.128;15.422;2022-11-20T19:55:47;9.93;;;7.18;;
23868;SDS011;12115;47.128;15.422;2022-11-20T19:59:02;9.40;;;7.00;;
23868;SDS011;12115;47.128;15.422;2022-11-20T20:02:17;12.00;;;8.38;;
23868;SDS011;12115;47.128;15.422;2022-11-20T20:06:07;13.45;;;9.48;;
23868;SDS011;12115;47.128;15.422;2022-11-20T20:08:59;6.97;;;6.05;;
23868;SDS011;12115;47.128;15.422;2022-11-20T20:14:55;8.40;;;6.35;;
23868;SDS011;12115;47.128;15.422;2022-11-20T20:17:44;6.70;;;6.00;;
23868;SDS011;12115;47.128;15.422;2022-11-20T20:21:00;9.18;;;6.78;;
23868;SDS011;12115;47.128;15.422;2022-11-20T20:24:08;7.93;;;6.82;;
23868;SDS011;12115;47.128;15.422;2022-11-20T20:30:11;7.38;;;6.15;;
23868;SDS011;12115;47.128;15.422;2022-11-20T20:36:13;9.95;;;6.97;;
23868;SDS011;12115;47.128;15.422;2022-11-20T20:38:56;8.52;;;6.20;;
23868;SDS011;12115;47.128;15.422;2022-11-20T20:42:00;10.13;;;6.82;;
23868;SDS011;12115;47.128;15.422;2022-11-20T20:45:11;11.50;;;8.32;;
23868;SDS011;12115;47.128;15.422;2022-11-20T20:48:41;11.90;;;8.60;;
23868;SDS011;12115;47.128;15.422;2022-11-20T20:51:49;10.43;;;7.82;;
23868;SDS011;12115;47.128;15.422;2022-11-20T20:54:47;9.40;;;7.20;;
23868;SDS011;12115;47.128;15.422;2022-11-20T20:57:50;8.80;;;6.43;;
23868;SDS011;12115;47.128;15.422;2022-11-20T21:01:07;9.50;;;7.25;;
23868;SDS011;12115;47.128;15.422;2022-11-20T21:07:29;11.05;;;7.28;;
23868;SDS011;12115;47.128;15.422;2022-11-20T21:10:10;11.50;;;8.00;;
23868;SDS011;12115;47.128;15.422;2022-11-20T21:13:10;10.75;;;8.30;;
23868;SDS011;12115;47.128;15.422;2022-11-20T21:16:15;13.10;;;8.23;;
23868;SDS011;12115;47.128;15.422;2022-11-20T21:19:29;15.68;;;10.07;;
23868;SDS011;12115;47.128;15.422;2022-11-20T21:23:07;11.05;;;8.63;;
23868;SDS011;12115;47.128;15.422;2022-11-20T21:25:54;12.07;;;8.90;;
23868;SDS011;12115;47.128;15.422;2022-11-20T21:29:41;11.00;;;8.43;;
23868;SDS011;12115;47.128;15.422;2022-11-20T21:32:36;12.02;;;9.20;;
23868;SDS011;12115;47.128;15.422;2022-11-20T21:35:38;11.45;;;8.63;;
23868;SDS011;12115;47.128;15.422;2022-11-20T21:38:53;13.40;;;9.57;;
23868;SDS011;12115;47.128;15.422;2022-11-20T21:42:22;15.48;;;10.85;;
23868;SDS011;12115;47.128;15.422;2022-11-20T21:45:34;12.75;;;9.63;;
23868;SDS011;12115;47.128;15.422;2022-11-20T21:48:26;16.63;;;11.15;;
23868;SDS011;12115;47.128;15.422;2022-11-20T21:51:29;15.02;;;9.57;;
23868;SDS011;12115;47.128;15.422;2022-11-20T21:54:34;14.48;;;9.13;;
23868;SDS011;12115;47.128;15.422;2022-11-20T21:57:47;15.02;;;10.68;;
23868;SDS011;12115;47.128;15.422;2022-11-20T22:00:29;15.73;;;10.10;;
23868;SDS011;12115;47.128;15.422;2022-11-20T22:07:28;13.85;;;10.50;;
23868;SDS011;12115;47.128;15.422;2022-11-20T22:10:27;16.83;;;12.10;;
23868;SDS011;12115;47.128;15.422;2022-11-20T22:13:29;13.57;;;10.90;;
23868;SDS011;12115;47.128;15.422;2022-11-20T22:16:47;11.32;;;8.82;;
23868;SDS011;12115;47.128;15.422;2022-11-20T22:19:48;11.90;;;8.90;;
23868;SDS011;12115;47.128;15.422;2022-11-20T22:25:52;12.00;;;9.25;;
23868;SDS011;12115;47.128;15.422;2022-11-20T22:32:28;13.23;;;10.48;;
23868;SDS011;12115;47.128;15.422;2022-11-20T22:35:24;14.07;;;10.82;;
23868;SDS011;12115;47.128;15.422;2022-11-20T22:38:26;12.52;;;9.60;;
23868;SDS011;12115;47.128;15.422;2022-11-20T22:41:43;16.23;;;10.27;;